DAL510 KLAX-KSFO
Flight info
| Callsign | DAL510 |
|---|---|
| Flight time | 0h 55m |
| Altitude | 30000 |
| Route | SUMMR2 STOKD SERFR SERFR4 |
| Aircraft | A321/M-SDE3FGHIRWY/LB1 |
Departure
| Time | 2026-04-21 23:31 |
|---|---|
| Airport | Los Angeles International Airport (KLAX) |
Arrival
| Time | 2026-04-22 00:26 |
|---|---|
| Airport | San Francisco International Airport (KSFO) |
| Time | Latitude | Longitude | Altitude | Speed | Heading |
|---|---|---|---|---|---|
| 2026-04-21 23:00 | 33.94540 | -118.40781 | 126 ft | 0 kts | 96° |
| 2026-04-21 23:21 | 33.94541 | -118.40786 | 126 ft | 1 kts | 96° |
| 2026-04-21 23:21 | 33.94542 | -118.40801 | 121 ft | 2 kts | 96° |
| 2026-04-21 23:22 | 33.94544 | -118.40818 | 124 ft | 2 kts | 96° |
| 2026-04-21 23:22 | 33.94545 | -118.40836 | 122 ft | 2 kts | 96° |
| 2026-04-21 23:22 | 33.94547 | -118.40855 | 122 ft | 2 kts | 72° |
| 2026-04-21 23:22 | 33.94541 | -118.40873 | 122 ft | 2 kts | 33° |
| 2026-04-21 23:23 | 33.94531 | -118.40877 | 125 ft | 0 kts | 344° |
| 2026-04-21 23:24 | 33.94564 | -118.40891 | 125 ft | 10 kts | 343° |
| 2026-04-21 23:24 | 33.94631 | -118.40904 | 123 ft | 10 kts | 353° |
| 2026-04-21 23:25 | 33.94658 | -118.40907 | 124 ft | 0 kts | 354° |
| 2026-04-21 23:25 | 33.94662 | -118.40908 | 125 ft | 4 kts | 354° |
| 2026-04-21 23:26 | 33.94735 | -118.40915 | 124 ft | 13 kts | 2° |
| 2026-04-21 23:26 | 33.94815 | -118.40877 | 121 ft | 12 kts | 35° |
| 2026-04-21 23:26 | 33.94844 | -118.40794 | 126 ft | 11 kts | 83° |
| 2026-04-21 23:26 | 33.94855 | -118.40683 | 126 ft | 18 kts | 83° |
| 2026-04-21 23:27 | 33.94872 | -118.40523 | 125 ft | 19 kts | 83° |
| 2026-04-21 23:27 | 33.94889 | -118.40365 | 126 ft | 19 kts | 83° |
| 2026-04-21 23:27 | 33.94904 | -118.40215 | 124 ft | 16 kts | 83° |
| 2026-04-21 23:27 | 33.94918 | -118.40084 | 124 ft | 15 kts | 83° |
| 2026-04-21 23:28 | 33.94931 | -118.39968 | 126 ft | 12 kts | 76° |
| 2026-04-21 23:28 | 33.94941 | -118.39941 | 124 ft | 0 kts | 57° |
| 2026-04-21 23:29 | 33.94949 | -118.39930 | 122 ft | 5 kts | 47° |
| 2026-04-21 23:29 | 33.95014 | -118.39917 | 123 ft | 13 kts | 346° |
| 2026-04-21 23:30 | 33.95036 | -118.40005 | 124 ft | 16 kts | 265° |
| 2026-04-21 23:30 | 33.94994 | -118.40408 | 126 ft | 83 kts | 263° |
| 2026-04-21 23:30 | 33.94896 | -118.41330 | 125 ft | 136 kts | 263° |
| 2026-04-21 23:30 | 33.94775 | -118.42588 | 404 ft | 153 kts | 258° |
| 2026-04-21 23:31 | 33.94704 | -118.43838 | 1107 ft | 148 kts | 263° |
| 2026-04-21 23:31 | 33.94590 | -118.45070 | 1725 ft | 150 kts | 262° |
| 2026-04-21 23:31 | 33.94452 | -118.46356 | 2072 ft | 164 kts | 262° |
| 2026-04-21 23:31 | 33.94348 | -118.47804 | 2236 ft | 184 kts | 266° |
| 2026-04-21 23:32 | 33.94281 | -118.49432 | 2359 ft | 206 kts | 266° |
| 2026-04-21 23:32 | 33.94210 | -118.51259 | 2537 ft | 232 kts | 265° |
| 2026-04-21 23:32 | 33.94074 | -118.53261 | 3167 ft | 244 kts | 264° |
| 2026-04-21 23:32 | 33.93911 | -118.55312 | 4042 ft | 247 kts | 263° |
| 2026-04-21 23:33 | 33.93739 | -118.57374 | 4955 ft | 250 kts | 263° |
| 2026-04-21 23:33 | 33.93565 | -118.59466 | 5831 ft | 253 kts | 262° |
| 2026-04-21 23:33 | 33.93391 | -118.61593 | 6742 ft | 257 kts | 261° |
| 2026-04-21 23:33 | 33.93216 | -118.63746 | 7557 ft | 260 kts | 261° |
| 2026-04-21 23:34 | 33.93044 | -118.65891 | 8397 ft | 261 kts | 261° |
| 2026-04-21 23:34 | 33.92871 | -118.68109 | 9276 ft | 263 kts | 262° |
| 2026-04-21 23:34 | 33.92701 | -118.70302 | 10139 ft | 264 kts | 261° |
| 2026-04-21 23:34 | 33.92522 | -118.72579 | 10482 ft | 284 kts | 261° |
| 2026-04-21 23:35 | 33.92324 | -118.75044 | 10681 ft | 307 kts | 262° |
| 2026-04-21 23:35 | 33.92118 | -118.77649 | 11198 ft | 316 kts | 262° |
| 2026-04-21 23:35 | 33.91912 | -118.80294 | 11788 ft | 319 kts | 262° |
| 2026-04-21 23:35 | 33.91715 | -118.82956 | 12077 ft | 321 kts | 264° |
| 2026-04-21 23:36 | 33.91764 | -118.85654 | 12889 ft | 323 kts | 269° |
| 2026-04-21 23:36 | 33.91851 | -118.88360 | 13731 ft | 323 kts | 269° |
| 2026-04-21 23:36 | 33.91933 | -118.91068 | 14467 ft | 324 kts | 269° |
| 2026-04-21 23:36 | 33.92011 | -118.93758 | 15145 ft | 326 kts | 269° |
| 2026-04-21 23:37 | 33.92089 | -118.96486 | 15834 ft | 327 kts | 269° |
| 2026-04-21 23:37 | 33.92195 | -118.99233 | 16497 ft | 330 kts | 272° |
| 2026-04-21 23:37 | 33.92693 | -119.01956 | 17165 ft | 338 kts | 284° |
| 2026-04-21 23:37 | 33.93705 | -119.04541 | 17818 ft | 347 kts | 295° |
| 2026-04-21 23:38 | 33.94996 | -119.07008 | 18471 ft | 349 kts | 295° |
| 2026-04-21 23:38 | 33.96295 | -119.09496 | 19016 ft | 351 kts | 295° |
| 2026-04-21 23:38 | 33.97590 | -119.11999 | 19552 ft | 353 kts | 295° |
| 2026-04-21 23:38 | 33.98885 | -119.14515 | 20073 ft | 355 kts | 295° |
| 2026-04-21 23:39 | 34.00226 | -119.17029 | 20589 ft | 360 kts | 299° |
| 2026-04-21 23:39 | 34.01918 | -119.19313 | 21096 ft | 372 kts | 309° |
| 2026-04-21 23:39 | 34.04002 | -119.21251 | 21635 ft | 382 kts | 315° |
| 2026-04-21 23:39 | 34.06178 | -119.23110 | 22148 ft | 385 kts | 315° |
| 2026-04-21 23:40 | 34.08367 | -119.24980 | 22652 ft | 387 kts | 315° |
| 2026-04-21 23:40 | 34.10567 | -119.26861 | 23161 ft | 388 kts | 315° |
| 2026-04-21 23:40 | 34.12775 | -119.28752 | 23651 ft | 390 kts | 315° |
| 2026-04-21 23:40 | 34.14996 | -119.30659 | 24057 ft | 393 kts | 315° |
| 2026-04-21 23:41 | 34.17226 | -119.32579 | 24452 ft | 395 kts | 315° |
| 2026-04-21 23:41 | 34.19469 | -119.34515 | 24845 ft | 397 kts | 315° |
| 2026-04-21 23:41 | 34.21722 | -119.36464 | 25265 ft | 399 kts | 314° |
| 2026-04-21 23:41 | 34.23983 | -119.38423 | 25645 ft | 401 kts | 314° |
| 2026-04-21 23:42 | 34.26262 | -119.40392 | 26026 ft | 404 kts | 314° |
| 2026-04-21 23:42 | 34.28553 | -119.42371 | 26396 ft | 406 kts | 314° |
| 2026-04-21 23:42 | 34.30859 | -119.44364 | 26765 ft | 408 kts | 314° |
| 2026-04-21 23:42 | 34.33176 | -119.46369 | 27124 ft | 411 kts | 314° |
| 2026-04-21 23:43 | 34.35509 | -119.48390 | 27494 ft | 413 kts | 314° |
| 2026-04-21 23:43 | 34.37847 | -119.50419 | 27857 ft | 415 kts | 314° |
| 2026-04-21 23:43 | 34.40196 | -119.52465 | 28236 ft | 415 kts | 313° |
| 2026-04-21 23:43 | 34.42343 | -119.54745 | 28595 ft | 406 kts | 305° |
| 2026-04-21 23:44 | 34.44325 | -119.57192 | 28961 ft | 407 kts | 305° |
| 2026-04-21 23:44 | 34.46319 | -119.59651 | 29306 ft | 410 kts | 305° |
| 2026-04-21 23:44 | 34.48320 | -119.62115 | 29642 ft | 411 kts | 305° |
| 2026-04-21 23:44 | 34.50332 | -119.64597 | 29894 ft | 413 kts | 305° |
| 2026-04-21 23:45 | 34.52356 | -119.67085 | 30076 ft | 414 kts | 305° |
| 2026-04-21 23:45 | 34.56273 | -119.71862 | 30094 ft | 395 kts | 304° |
| 2026-04-21 23:46 | 34.60113 | -119.76597 | 30088 ft | 392 kts | 304° |
| 2026-04-21 23:46 | 34.63930 | -119.81332 | 30093 ft | 392 kts | 304° |
| 2026-04-21 23:47 | 34.67736 | -119.86062 | 30108 ft | 391 kts | 304° |
| 2026-04-21 23:47 | 34.71535 | -119.90775 | 30099 ft | 390 kts | 304° |
| 2026-04-21 23:48 | 34.75325 | -119.95480 | 30117 ft | 388 kts | 304° |
| 2026-04-21 23:48 | 34.79106 | -120.00178 | 30106 ft | 389 kts | 304° |
| 2026-04-21 23:49 | 34.82893 | -120.04876 | 30100 ft | 389 kts | 304° |
| 2026-04-21 23:49 | 34.86669 | -120.09576 | 30104 ft | 388 kts | 304° |
| 2026-04-21 23:50 | 34.90490 | -120.14363 | 30171 ft | 402 kts | 304° |
| 2026-04-21 23:50 | 34.94421 | -120.19296 | 30111 ft | 407 kts | 304° |
| 2026-04-21 23:51 | 34.98378 | -120.24249 | 30096 ft | 408 kts | 304° |
| 2026-04-21 23:51 | 35.02312 | -120.29184 | 30104 ft | 408 kts | 304° |
| 2026-04-21 23:52 | 35.06272 | -120.34149 | 30111 ft | 408 kts | 304° |
| 2026-04-21 23:52 | 35.10260 | -120.39082 | 30136 ft | 409 kts | 306° |
| 2026-04-21 23:53 | 35.14456 | -120.43802 | 30125 ft | 411 kts | 308° |
| 2026-04-21 23:53 | 35.18713 | -120.48442 | 30101 ft | 410 kts | 309° |
| 2026-04-21 23:54 | 35.22933 | -120.53107 | 30087 ft | 408 kts | 308° |
| 2026-04-21 23:54 | 35.27107 | -120.57811 | 30129 ft | 408 kts | 307° |
| 2026-04-21 23:55 | 35.31278 | -120.62531 | 30124 ft | 408 kts | 307° |
| 2026-04-21 23:55 | 35.35446 | -120.67238 | 30120 ft | 407 kts | 307° |
| 2026-04-21 23:56 | 35.39619 | -120.71939 | 30107 ft | 408 kts | 308° |
| 2026-04-21 23:56 | 35.43784 | -120.76638 | 30121 ft | 406 kts | 307° |
| 2026-04-21 23:57 | 35.47931 | -120.81333 | 30115 ft | 406 kts | 308° |
| 2026-04-21 23:57 | 35.52461 | -120.85637 | 30116 ft | 413 kts | 312° |
| 2026-04-21 23:58 | 35.57053 | -120.89885 | 30174 ft | 413 kts | 311° |
| 2026-04-21 23:58 | 35.61621 | -120.94119 | 30104 ft | 410 kts | 311° |
| 2026-04-21 23:59 | 35.66135 | -120.98317 | 30080 ft | 409 kts | 312° |
| 2026-04-21 23:59 | 35.70667 | -121.02537 | 30082 ft | 408 kts | 312° |
| 2026-04-22 00:00 | 35.75189 | -121.06763 | 30139 ft | 408 kts | 311° |
| 2026-04-22 00:00 | 35.79703 | -121.10986 | 30127 ft | 407 kts | 311° |
| 2026-04-22 00:01 | 35.84222 | -121.15204 | 30120 ft | 407 kts | 311° |
| 2026-04-22 00:01 | 35.88720 | -121.19416 | 30106 ft | 406 kts | 311° |
| 2026-04-22 00:02 | 35.92485 | -121.22952 | 30112 ft | 405 kts | 311° |
| 2026-04-22 00:02 | 35.96948 | -121.27138 | 30072 ft | 402 kts | 312° |
| 2026-04-22 00:03 | 36.01396 | -121.31323 | 30078 ft | 401 kts | 312° |
| 2026-04-22 00:03 | 36.05800 | -121.35487 | 30076 ft | 401 kts | 312° |
| 2026-04-22 00:04 | 36.10511 | -121.39341 | 30115 ft | 408 kts | 316° |
| 2026-04-22 00:04 | 36.12915 | -121.41212 | 29806 ft | 408 kts | 317° |
| 2026-04-22 00:04 | 36.15291 | -121.43050 | 29534 ft | 397 kts | 317° |
| 2026-04-22 00:04 | 36.17602 | -121.44831 | 29247 ft | 387 kts | 316° |
| 2026-04-22 00:05 | 36.19864 | -121.46586 | 28963 ft | 382 kts | 316° |
| 2026-04-22 00:05 | 36.22101 | -121.48339 | 28692 ft | 379 kts | 316° |
| 2026-04-22 00:05 | 36.24322 | -121.50087 | 28420 ft | 377 kts | 316° |
| 2026-04-22 00:05 | 36.26532 | -121.51829 | 28148 ft | 377 kts | 316° |
| 2026-04-22 00:06 | 36.28731 | -121.53560 | 27800 ft | 371 kts | 316° |
| 2026-04-22 00:06 | 36.30894 | -121.55249 | 27318 ft | 364 kts | 316° |
| 2026-04-22 00:06 | 36.33020 | -121.56908 | 26851 ft | 358 kts | 316° |
| 2026-04-22 00:06 | 36.35107 | -121.58541 | 26393 ft | 352 kts | 316° |
| 2026-04-22 00:07 | 36.37160 | -121.60150 | 25949 ft | 347 kts | 316° |
| 2026-04-22 00:07 | 36.39182 | -121.61741 | 25501 ft | 341 kts | 316° |
| 2026-04-22 00:07 | 36.41174 | -121.63307 | 25072 ft | 336 kts | 316° |
| 2026-04-22 00:07 | 36.43136 | -121.64850 | 24688 ft | 332 kts | 316° |
| 2026-04-22 00:08 | 36.45078 | -121.66380 | 24265 ft | 328 kts | 316° |
| 2026-04-22 00:08 | 36.46990 | -121.67886 | 23867 ft | 323 kts | 316° |
| 2026-04-22 00:08 | 36.48880 | -121.69376 | 23430 ft | 320 kts | 316° |
| 2026-04-22 00:08 | 36.50748 | -121.70848 | 23001 ft | 315 kts | 316° |
| 2026-04-22 00:09 | 36.52588 | -121.72301 | 22608 ft | 314 kts | 316° |
| 2026-04-22 00:09 | 36.54429 | -121.73763 | 22222 ft | 314 kts | 317° |
| 2026-04-22 00:09 | 36.56299 | -121.75256 | 21818 ft | 329 kts | 317° |
| 2026-04-22 00:09 | 36.58254 | -121.76829 | 21387 ft | 338 kts | 318° |
| 2026-04-22 00:10 | 36.60249 | -121.78421 | 20973 ft | 344 kts | 320° |
| 2026-04-22 00:10 | 36.62283 | -121.80033 | 20514 ft | 349 kts | 320° |
| 2026-04-22 00:10 | 36.64327 | -121.81643 | 20044 ft | 346 kts | 321° |
| 2026-04-22 00:10 | 36.66362 | -121.83244 | 19598 ft | 346 kts | 321° |
| 2026-04-22 00:11 | 36.68395 | -121.84851 | 19133 ft | 346 kts | 321° |
| 2026-04-22 00:11 | 36.70430 | -121.86461 | 18670 ft | 347 kts | 322° |
| 2026-04-22 00:11 | 36.72470 | -121.88077 | 18209 ft | 348 kts | 323° |
| 2026-04-22 00:11 | 36.74619 | -121.89424 | 17676 ft | 353 kts | 335° |
| 2026-04-22 00:12 | 36.77009 | -121.90224 | 17202 ft | 357 kts | 343° |
| 2026-04-22 00:12 | 36.79439 | -121.90894 | 16705 ft | 358 kts | 343° |
| 2026-04-22 00:12 | 36.81866 | -121.91565 | 16220 ft | 356 kts | 343° |
| 2026-04-22 00:12 | 36.84279 | -121.92237 | 15737 ft | 355 kts | 343° |
| 2026-04-22 00:13 | 36.86685 | -121.92908 | 15260 ft | 353 kts | 343° |
| 2026-04-22 00:13 | 36.89078 | -121.93580 | 14785 ft | 352 kts | 343° |
| 2026-04-22 00:13 | 36.91464 | -121.94250 | 14310 ft | 350 kts | 343° |
| 2026-04-22 00:13 | 36.93841 | -121.94915 | 13821 ft | 349 kts | 343° |
| 2026-04-22 00:14 | 36.96198 | -121.95617 | 13324 ft | 347 kts | 341° |
| 2026-04-22 00:14 | 36.98504 | -121.96439 | 12876 ft | 343 kts | 339° |
| 2026-04-22 00:14 | 37.00773 | -121.97337 | 12414 ft | 342 kts | 338° |
| 2026-04-22 00:14 | 37.03036 | -121.98265 | 11956 ft | 341 kts | 338° |
| 2026-04-22 00:15 | 37.05275 | -121.99185 | 11497 ft | 338 kts | 338° |
| 2026-04-22 00:15 | 37.07508 | -122.00092 | 11020 ft | 336 kts | 338° |
| 2026-04-22 00:15 | 37.09720 | -122.00975 | 10548 ft | 332 kts | 339° |
| 2026-04-22 00:15 | 37.11871 | -122.01820 | 10311 ft | 313 kts | 339° |
| 2026-04-22 00:16 | 37.13894 | -122.02605 | 10063 ft | 298 kts | 338° |
| 2026-04-22 00:16 | 37.15856 | -122.03368 | 9772 ft | 293 kts | 339° |
| 2026-04-22 00:16 | 37.17791 | -122.04122 | 9634 ft | 290 kts | 339° |
| 2026-04-22 00:16 | 37.19688 | -122.04861 | 9479 ft | 282 kts | 339° |
| 2026-04-22 00:17 | 37.21553 | -122.05588 | 9160 ft | 279 kts | 339° |
| 2026-04-22 00:17 | 37.23397 | -122.06313 | 8807 ft | 277 kts | 339° |
| 2026-04-22 00:17 | 37.25233 | -122.07034 | 8449 ft | 275 kts | 339° |
| 2026-04-22 00:17 | 37.27050 | -122.07747 | 8090 ft | 272 kts | 338° |
| 2026-04-22 00:18 | 37.28848 | -122.08451 | 7727 ft | 269 kts | 338° |
| 2026-04-22 00:18 | 37.30627 | -122.09151 | 7380 ft | 267 kts | 338° |
| 2026-04-22 00:18 | 37.32399 | -122.09851 | 7042 ft | 266 kts | 338° |
| 2026-04-22 00:18 | 37.34159 | -122.10550 | 6682 ft | 265 kts | 339° |
| 2026-04-22 00:19 | 37.35906 | -122.11244 | 6325 ft | 262 kts | 339° |
| 2026-04-22 00:19 | 37.37640 | -122.11929 | 5973 ft | 261 kts | 338° |
| 2026-04-22 00:19 | 37.39400 | -122.12571 | 5466 ft | 264 kts | 340° |
| 2026-04-22 00:19 | 37.41156 | -122.13162 | 5011 ft | 258 kts | 341° |
| 2026-04-22 00:20 | 37.42886 | -122.13728 | 4308 ft | 254 kts | 341° |
| 2026-04-22 00:20 | 37.44596 | -122.14284 | 3739 ft | 255 kts | 341° |
| 2026-04-22 00:20 | 37.46302 | -122.14844 | 3461 ft | 247 kts | 340° |
| 2026-04-22 00:20 | 37.47895 | -122.15367 | 3423 ft | 227 kts | 341° |
| 2026-04-22 00:21 | 37.49368 | -122.15852 | 3361 ft | 211 kts | 339° |
| 2026-04-22 00:21 | 37.50761 | -122.16316 | 3304 ft | 205 kts | 339° |
| 2026-04-22 00:21 | 37.52117 | -122.16774 | 3226 ft | 196 kts | 339° |
| 2026-04-22 00:21 | 37.53268 | -122.17464 | 3135 ft | 172 kts | 318° |
| 2026-04-22 00:22 | 37.54052 | -122.18452 | 3062 ft | 155 kts | 301° |
| 2026-04-22 00:22 | 37.54567 | -122.19599 | 2907 ft | 149 kts | 294° |
| 2026-04-22 00:22 | 37.55076 | -122.20806 | 2725 ft | 161 kts | 294° |
| 2026-04-22 00:22 | 37.55605 | -122.22061 | 2503 ft | 163 kts | 293° |
| 2026-04-22 00:23 | 37.56141 | -122.23330 | 2284 ft | 164 kts | 293° |
| 2026-04-22 00:23 | 37.56675 | -122.24595 | 2061 ft | 162 kts | 293° |
| 2026-04-22 00:23 | 37.57188 | -122.25808 | 1844 ft | 151 kts | 293° |
| 2026-04-22 00:23 | 37.57660 | -122.26928 | 1652 ft | 140 kts | 292° |
| 2026-04-22 00:24 | 37.58113 | -122.28004 | 1456 ft | 139 kts | 293° |
| 2026-04-22 00:24 | 37.58566 | -122.29082 | 1260 ft | 138 kts | 292° |
| 2026-04-22 00:24 | 37.59015 | -122.30150 | 1069 ft | 138 kts | 295° |
| 2026-04-22 00:24 | 37.59461 | -122.31211 | 862 ft | 137 kts | 293° |
| 2026-04-22 00:25 | 37.59905 | -122.32267 | 687 ft | 136 kts | 293° |
| 2026-04-22 00:25 | 37.60345 | -122.33312 | 505 ft | 134 kts | 295° |
| 2026-04-22 00:25 | 37.60779 | -122.34344 | 332 ft | 132 kts | 294° |
| 2026-04-22 00:25 | 37.61203 | -122.35348 | 137 ft | 129 kts | 295° |
| 2026-04-22 00:26 | 37.61631 | -122.36337 | 27 ft | 126 kts | 296° |
| 2026-04-22 00:26 | 37.61984 | -122.37192 | 15 ft | 83 kts | 291° |
| 2026-04-22 00:26 | 37.62158 | -122.37632 | 22 ft | 31 kts | 299° |
| 2026-04-22 00:26 | 37.62201 | -122.37817 | 21 ft | 20 kts | 278° |
| 2026-04-22 00:27 | 37.62216 | -122.37964 | 24 ft | 12 kts | 277° |
| 2026-04-22 00:27 | 37.62225 | -122.38053 | 25 ft | 8 kts | 276° |
| 2026-04-22 00:27 | 37.62227 | -122.38081 | 25 ft | 2 kts | 276° |
| 2026-04-22 00:27 | 37.62227 | -122.38083 | 25 ft | 0 kts | 275° |
| 2026-04-22 00:29 | 37.62230 | -122.38145 | 24 ft | 15 kts | 270° |
| 2026-04-22 00:29 | 37.62184 | -122.38273 | 22 ft | 17 kts | 227° |
| 2026-04-22 00:29 | 37.62102 | -122.38330 | 22 ft | 12 kts | 200° |
| 2026-04-22 00:30 | 37.62029 | -122.38331 | 23 ft | 10 kts | 144° |
| 2026-04-22 00:30 | 37.61986 | -122.38251 | 25 ft | 13 kts | 120° |
| 2026-04-22 00:30 | 37.61941 | -122.38142 | 22 ft | 14 kts | 116° |
| 2026-04-22 00:30 | 37.61893 | -122.38035 | 22 ft | 13 kts | 129° |
| 2026-04-22 00:31 | 37.61820 | -122.37968 | 21 ft | 13 kts | 154° |
| 2026-04-22 00:31 | 37.61714 | -122.37949 | 18 ft | 18 kts | 189° |
| 2026-04-22 00:31 | 37.61593 | -122.38012 | 14 ft | 20 kts | 206° |
| 2026-04-22 00:31 | 37.61469 | -122.38094 | 15 ft | 20 kts | 208° |
| 2026-04-22 00:32 | 37.61347 | -122.38176 | 15 ft | 20 kts | 208° |
| 2026-04-22 00:32 | 37.61238 | -122.38244 | 18 ft | 12 kts | 207° |
| 2026-04-22 00:32 | 37.61172 | -122.38289 | 18 ft | 9 kts | 209° |
| 2026-04-22 00:32 | 37.61143 | -122.38334 | 19 ft | 3 kts | 259° |
| 2026-04-22 00:33 | 37.61151 | -122.38360 | 18 ft | 4 kts | 300° |
| 2026-04-22 00:33 | 37.61165 | -122.38391 | 18 ft | 5 kts | 301° |
| 2026-04-22 00:33 | 37.61184 | -122.38431 | 19 ft | 5 kts | 300° |
| 2026-04-22 00:33 | 37.61186 | -122.38435 | 18 ft | 0 kts | 299° |